Angle Inlet, Minnesota
Current Conditions -  °F | °C
As of 12:54 PM on Monday 20 Oct 2014 (Local Time) from KFGN Reporting Station
Overcast Overcast  
Wind Chill:   Ceiling: 2500
Heat Index:   Visibility: 10mi
Dew Point:   Wind: 6mph
Humidity: 71%   Direction: 20°NNE
Pressure: 30.06"   Gusts: NA
Location:  49.35°N, 95.08°W
Report Text: KFGN 201754Z AUTO 02005KT 10SM OVC025 07/02 A3006 RMK AO2
Loading
Personal Weather Stations






























Interactive Weather Map
Tropical Storm Tracking
New forecast layout! Learn more

10-Day Weather Forecast

Advertisements
Track Severe Weather on mobile